createdAt,value
2023-04-29T00:00:30.049Z,17.13
2023-04-29T00:02:58.429Z,20.70
2023-04-29T00:05:26.866Z,20.27
2023-04-29T00:07:55.305Z,19.57
2023-04-29T00:10:24.908Z,16.20
2023-04-29T00:12:53.114Z,15.57
2023-04-29T00:15:21.437Z,15.97
2023-04-29T00:17:50.729Z,17.20
2023-04-29T00:20:19.058Z,18.30
2023-04-29T00:22:47.274Z,16.43
2023-04-29T00:25:15.949Z,14.80
2023-04-29T00:27:45.514Z,18.40
2023-04-29T00:30:13.730Z,20.67
2023-04-29T00:32:42.126Z,16.53
2023-04-29T00:35:10.786Z,16.60
2023-04-29T00:37:39.050Z,14.70
2023-04-29T00:40:08.596Z,21.90
2023-04-29T00:42:36.851Z,21.43
2023-04-29T00:45:08.353Z,14.30
2023-04-29T00:47:36.595Z,21.10
2023-04-29T00:50:04.998Z,23.70
2023-04-29T00:52:33.486Z,21.50
2023-04-29T00:55:01.770Z,24.50
2023-04-29T00:57:30.188Z,15.80
2023-04-29T00:59:59.463Z,19.63
2023-04-29T01:02:30.154Z,23.90
2023-04-29T01:04:58.623Z,21.60
2023-04-29T01:07:32.069Z,23.87
2023-04-29T01:10:04.962Z,19.60
2023-04-29T01:12:41.135Z,18.53
2023-04-29T01:15:12.706Z,19.53
2023-04-29T01:17:43.704Z,21.23
2023-04-29T01:20:12.148Z,30.27
2023-04-29T01:22:40.361Z,29.87
2023-04-29T01:25:10.552Z,20.37
2023-04-29T01:27:41.699Z,25.70
2023-04-29T01:30:12.473Z,27.77
2023-04-29T01:32:45.275Z,23.77
2023-04-29T01:35:17.408Z,21.67
2023-04-29T01:37:51.257Z,28.20
2023-04-29T01:40:22.266Z,20.33
2023-04-29T01:42:57.662Z,25.13
2023-04-29T01:45:26.662Z,27.83
2023-04-29T01:47:57.175Z,34.10
2023-04-29T01:50:25.474Z,23.73
2023-04-29T01:52:53.729Z,29.80
2023-04-29T01:55:23.976Z,26.13
2023-04-29T01:57:52.201Z,29.63
2023-04-29T02:00:20.757Z,21.07
2023-04-29T02:02:49.093Z,24.13
2023-04-29T02:05:17.679Z,28.17
2023-04-29T02:07:45.918Z,26.90
2023-04-29T02:10:14.203Z,31.37
2023-04-29T02:12:43.702Z,32.03
2023-04-29T02:15:12.141Z,34.57
2023-04-29T02:17:40.397Z,31.63
2023-04-29T02:20:10.148Z,30.73
2023-04-29T02:22:38.467Z,28.90
2023-04-29T02:25:07.350Z,29.00
2023-04-29T02:27:35.591Z,26.13
2023-04-29T02:30:05.559Z,29.77
2023-04-29T02:32:33.876Z,26.53
2023-04-29T02:35:02.126Z,32.70
2023-04-29T02:37:30.478Z,35.53
2023-04-29T02:39:58.763Z,30.37
2023-04-29T02:42:26.981Z,24.93
2023-04-29T02:44:55.228Z,33.43
2023-04-29T02:47:24.982Z,32.70
2023-04-29T02:49:53.706Z,27.60
2023-04-29T02:52:22.187Z,23.40
2023-04-29T02:54:50.400Z,29.00
2023-04-29T02:57:18.592Z,22.43
2023-04-29T02:59:47.122Z,8.73
2023-04-29T03:02:15.309Z,19.93
2023-04-29T03:04:44.959Z,22.70
2023-04-29T03:07:13.155Z,24.10
2023-04-29T03:09:41.379Z,25.93
2023-04-29T03:12:09.639Z,18.47
2023-04-29T03:14:38.563Z,29.03
2023-04-29T03:17:06.917Z,25.93
2023-04-29T03:19:35.241Z,24.03
2023-04-29T03:22:04.826Z,25.97
2023-04-29T03:24:33.058Z,23.67
2023-04-29T03:27:01.350Z,34.17
2023-04-29T03:29:29.611Z,45.30
2023-04-29T03:31:57.924Z,18.27
2023-04-29T03:34:26.387Z,32.20
2023-04-29T03:36:54.834Z,28.73
2023-04-29T03:39:24.353Z,36.80
2023-04-29T03:41:52.798Z,24.40
2023-04-29T03:44:21.073Z,21.30
2023-04-29T03:46:49.310Z,26.03
2023-04-29T03:49:17.978Z,35.13
2023-04-29T03:51:46.363Z,28.20
2023-04-29T03:54:14.603Z,26.70
2023-04-29T03:56:44.356Z,21.70
2023-04-29T03:59:12.512Z,27.77
2023-04-29T04:01:40.789Z,33.57
2023-04-29T04:04:09.207Z,25.57
2023-04-29T04:06:37.584Z,27.10
2023-04-29T04:09:05.822Z,34.00
2023-04-29T04:11:34.024Z,29.13
2023-04-29T04:14:04.393Z,27.70
2023-04-29T04:16:32.577Z,36.53
2023-04-29T04:19:00.873Z,23.93
2023-04-29T04:21:30.095Z,43.17
2023-04-29T04:23:58.505Z,36.70
2023-04-29T04:26:26.718Z,37.87
2023-04-29T04:28:54.944Z,45.33
2023-04-29T04:31:24.534Z,47.50
2023-04-29T04:33:52.824Z,39.40
2023-04-29T04:36:21.162Z,43.13
2023-04-29T04:38:49.444Z,21.63
2023-04-29T04:41:17.757Z,48.37
2023-04-29T04:43:46.220Z,27.67
2023-04-29T04:46:14.975Z,45.23
2023-04-29T04:48:44.829Z,54.53
2023-04-29T04:51:13.290Z,66.07
2023-04-29T04:53:41.943Z,66.23
2023-04-29T04:56:10.486Z,68.03
2023-04-29T04:58:38.700Z,50.67
2023-04-29T05:01:06.998Z,53.53
2023-04-29T05:03:35.556Z,56.23
2023-04-29T05:06:05.620Z,47.83
2023-04-29T05:08:33.791Z,34.33
2023-04-29T05:11:02.113Z,47.30
2023-04-29T05:13:30.400Z,24.13
2023-04-29T05:15:58.608Z,48.13
2023-04-29T05:18:26.802Z,40.70
2023-04-29T05:20:55.017Z,44.27
2023-04-29T05:23:24.605Z,51.27
2023-04-29T05:25:52.904Z,43.47
2023-04-29T05:28:21.099Z,46.33
2023-04-29T05:30:52.272Z,49.60
2023-04-29T05:33:20.576Z,49.50
2023-04-29T05:35:48.771Z,35.70
2023-04-29T05:38:17.018Z,44.53
2023-04-29T05:40:46.656Z,46.27
2023-04-29T05:43:14.918Z,40.70
2023-04-29T05:45:43.111Z,39.80
2023-04-29T05:48:11.348Z,46.10
2023-04-29T05:50:39.619Z,45.23
2023-04-29T05:53:07.884Z,46.53
2023-04-29T05:55:36.867Z,37.70
2023-04-29T05:58:06.460Z,41.37
2023-04-29T06:00:34.714Z,37.30
2023-04-29T06:03:03.071Z,32.23
2023-04-29T06:05:31.789Z,34.97
2023-04-29T06:08:00.337Z,31.80
2023-04-29T06:10:28.637Z,32.03
2023-04-29T06:12:56.971Z,33.43
2023-04-29T06:15:26.598Z,32.17
2023-04-29T06:17:54.901Z,31.37
2023-04-29T06:20:23.316Z,34.80
2023-04-29T06:22:51.699Z,33.53
2023-04-29T06:25:19.935Z,33.73
2023-04-29T06:27:49.437Z,34.10
2023-04-29T06:30:17.842Z,28.50
2023-04-29T06:32:47.515Z,29.23
2023-04-29T06:35:16.028Z,31.00
2023-04-29T06:37:44.253Z,33.13
2023-04-29T06:40:13.224Z,33.03
2023-04-29T06:42:41.659Z,25.40
2023-04-29T06:45:10.144Z,24.27
2023-04-29T06:47:38.469Z,22.97
2023-04-29T06:50:09.791Z,24.20
2023-04-29T06:52:38.012Z,26.40
2023-04-29T06:55:06.909Z,23.63
2023-04-29T06:57:35.154Z,21.37
2023-04-29T07:00:04.429Z,23.57
2023-04-29T07:02:32.967Z,24.57
2023-04-29T07:05:01.214Z,20.13
2023-04-29T07:07:30.796Z,22.63
2023-04-29T07:09:59.076Z,22.77
2023-04-29T07:12:27.305Z,23.20
2023-04-29T07:14:55.598Z,23.17
2023-04-29T07:17:23.864Z,23.47
2023-04-29T07:19:53.517Z,22.07
2023-04-29T07:22:22.584Z,20.23
2023-04-29T07:24:55.025Z,19.97
2023-04-29T07:27:23.422Z,18.80
2023-04-29T07:29:51.709Z,19.10
2023-04-29T07:32:21.130Z,23.57
2023-04-29T07:34:49.379Z,20.67
2023-04-29T07:37:17.724Z,23.87
2023-04-29T07:39:45.963Z,19.23
2023-04-29T07:42:15.513Z,17.83
2023-04-29T07:44:45.419Z,20.40
2023-04-29T07:47:13.874Z,20.30
2023-04-29T07:49:42.234Z,19.30
2023-04-29T07:52:10.590Z,20.07
2023-04-29T07:54:38.881Z,21.53
2023-04-29T07:57:07.164Z,16.93
2023-04-29T07:59:36.889Z,18.93
2023-04-29T08:02:05.156Z,15.73
2023-04-29T08:04:34.742Z,17.07
2023-04-29T08:07:05.720Z,14.30
2023-04-29T08:09:33.926Z,15.73
2023-04-29T08:12:02.880Z,14.10
2023-04-29T08:14:31.121Z,16.10
2023-04-29T08:17:00.754Z,15.93
2023-04-29T08:19:28.978Z,19.20
2023-04-29T08:21:57.180Z,18.40
2023-04-29T08:24:25.449Z,17.20
2023-04-29T08:26:54.188Z,15.00
2023-04-29T08:29:22.418Z,16.40
2023-04-29T08:31:51.007Z,15.17
2023-04-29T08:34:20.824Z,16.00
2023-04-29T08:36:49.153Z,13.90
2023-04-29T08:39:17.545Z,16.77
2023-04-29T08:41:49.369Z,16.13
2023-04-29T08:44:17.931Z,12.03
2023-04-29T08:46:47.114Z,15.80
2023-04-29T08:49:15.352Z,12.73
2023-04-29T08:51:45.370Z,14.83
2023-04-29T08:54:13.630Z,14.17
2023-04-29T08:56:41.946Z,17.50
2023-04-29T08:59:11.251Z,14.40
2023-04-29T09:01:41.935Z,17.00
2023-04-29T09:04:12.108Z,15.57
2023-04-29T09:06:40.393Z,14.13
2023-04-29T09:09:10.288Z,14.67
2023-04-29T09:11:38.872Z,21.90
2023-04-29T09:14:08.193Z,15.90
2023-04-29T09:16:38.211Z,15.90
2023-04-29T09:19:06.530Z,15.57
2023-04-29T09:21:35.385Z,13.80
2023-04-29T09:24:04.296Z,16.83
2023-04-29T09:26:38.176Z,14.03
2023-04-29T09:29:11.541Z,15.83
2023-04-29T09:31:40.262Z,14.37
2023-04-29T09:34:10.019Z,15.00
2023-04-29T09:36:42.373Z,16.00
2023-04-29T09:39:12.558Z,13.87
2023-04-29T09:42:00.047Z,15.93
2023-04-29T09:44:31.315Z,20.30
2023-04-29T09:47:02.679Z,14.60
2023-04-29T09:49:32.766Z,17.53
2023-04-29T09:52:01.841Z,16.00
2023-04-29T09:54:30.625Z,16.73
2023-04-29T09:57:01.017Z,16.00
2023-04-29T09:59:29.805Z,14.83
2023-04-29T10:01:59.250Z,23.70
2023-04-29T10:04:29.404Z,16.13
2023-04-29T10:06:58.294Z,16.00
2023-04-29T10:09:26.699Z,14.93
2023-04-29T10:11:55.515Z,19.43
2023-04-29T10:14:25.969Z,15.30
2023-04-29T10:17:00.758Z,12.87
2023-04-29T10:19:35.658Z,14.73
2023-04-29T10:22:09.280Z,22.00
2023-04-29T10:24:37.983Z,14.30
2023-04-29T10:27:08.790Z,12.70
2023-04-29T10:29:38.947Z,19.80
2023-04-29T10:32:09.785Z,17.87
2023-04-29T10:34:38.935Z,18.23
2023-04-29T10:37:07.485Z,19.70
2023-04-29T10:39:38.129Z,15.43
2023-04-29T10:42:07.907Z,14.90
2023-04-29T10:44:57.150Z,16.90
2023-04-29T10:47:26.895Z,19.93
2023-04-29T10:50:05.268Z,23.03
2023-04-29T10:52:55.012Z,21.73
2023-04-29T10:55:24.800Z,19.30
2023-04-29T10:57:56.464Z,25.20
2023-04-29T11:00:24.947Z,19.53
2023-04-29T11:02:55.338Z,20.10
2023-04-29T11:05:31.983Z,15.63
2023-04-29T11:08:13.330Z,18.47
2023-04-29T11:10:47.553Z,19.90
2023-04-29T11:13:25.676Z,20.67
2023-04-29T11:15:54.040Z,17.93
2023-04-29T11:18:25.032Z,17.50
2023-04-29T11:21:11.980Z,18.03
2023-04-29T11:23:41.230Z,17.47
2023-04-29T11:26:09.955Z,22.07
2023-04-29T11:28:38.188Z,14.50
2023-04-29T11:31:06.473Z,17.60
2023-04-29T11:33:36.103Z,20.83
2023-04-29T11:36:04.888Z,17.23
2023-04-29T11:38:33.437Z,18.47
2023-04-29T11:41:02.694Z,18.97
2023-04-29T11:43:31.001Z,16.60
2023-04-29T11:46:01.490Z,17.77
2023-04-29T11:48:30.407Z,20.13
2023-04-29T11:51:01.264Z,13.80
2023-04-29T11:53:29.605Z,15.67
2023-04-29T11:56:01.045Z,16.27
2023-04-29T11:58:29.299Z,14.83
2023-04-29T12:01:00.190Z,11.17
2023-04-29T12:03:28.794Z,18.47
2023-04-29T12:05:57.725Z,14.50
2023-04-29T12:08:27.843Z,11.37
2023-04-29T12:10:57.063Z,18.03
2023-04-29T12:13:26.060Z,19.73
2023-04-29T12:15:54.707Z,19.63
2023-04-29T12:18:23.469Z,22.20
2023-04-29T12:20:52.404Z,23.00
2023-04-29T12:23:23.539Z,19.60
2023-04-29T12:25:57.578Z,18.57
2023-04-29T12:28:26.113Z,11.17
2023-04-29T12:30:55.433Z,17.37
2023-04-29T12:33:25.579Z,17.43
2023-04-29T12:35:54.818Z,19.87
2023-04-29T12:38:23.553Z,20.33
2023-04-29T12:40:53.113Z,18.70
2023-04-29T12:43:21.459Z,17.50
2023-04-29T12:45:49.874Z,20.80
2023-04-29T12:48:26.724Z,18.57
2023-04-29T12:50:59.815Z,22.87
2023-04-29T12:53:28.276Z,18.33
2023-04-29T12:55:58.006Z,19.10
2023-04-29T12:58:26.273Z,18.80
2023-04-29T13:00:54.500Z,18.00
2023-04-29T13:03:23.602Z,22.80
2023-04-29T13:05:53.994Z,18.23
2023-04-29T13:08:22.874Z,19.50
2023-04-29T13:10:51.543Z,21.67
2023-04-29T13:13:21.598Z,18.30
2023-04-29T13:15:49.812Z,20.23
2023-04-29T13:18:18.047Z,26.07
2023-04-29T13:20:46.266Z,20.00
2023-04-29T13:23:14.507Z,35.87
2023-04-29T13:25:42.700Z,22.53
2023-04-29T13:28:11.504Z,24.13
2023-04-29T13:30:41.294Z,18.63
2023-04-29T13:33:12.308Z,23.87
2023-04-29T13:35:41.943Z,23.50
2023-04-29T13:38:10.480Z,25.90
2023-04-29T13:40:45.406Z,20.00
2023-04-29T13:43:20.963Z,25.23
2023-04-29T13:45:55.703Z,25.13
2023-04-29T13:48:54.795Z,23.03
2023-04-29T13:57:05.903Z,27.83
2023-04-29T13:59:37.837Z,23.30
2023-04-29T14:04:24.420Z,25.93
2023-04-29T14:06:52.802Z,23.90
2023-04-29T14:09:21.479Z,23.13
2023-04-29T14:11:50.143Z,24.50
2023-04-29T14:14:18.680Z,27.50
2023-04-29T14:16:46.872Z,23.43
2023-04-29T14:19:16.957Z,25.87
2023-04-29T14:21:45.216Z,20.57
2023-04-29T14:24:13.468Z,26.23
2023-04-29T14:26:41.852Z,25.90
2023-04-29T14:29:10.142Z,22.60
2023-04-29T14:31:38.941Z,27.00
2023-04-29T14:34:07.386Z,30.67
2023-04-29T14:36:36.998Z,31.40
2023-04-29T14:39:05.373Z,26.97
2023-04-29T14:41:33.607Z,26.60
2023-04-29T14:44:01.815Z,28.40
2023-04-29T14:46:30.072Z,25.80
2023-04-29T14:48:58.478Z,29.83
2023-04-29T14:51:27.322Z,23.83
2023-04-29T14:53:56.952Z,25.10
2023-04-29T14:56:25.224Z,28.13
2023-04-29T14:58:53.421Z,23.83
2023-04-29T15:01:21.697Z,21.80
2023-04-29T15:03:50.048Z,25.33
2023-04-29T15:06:18.385Z,25.90
2023-04-29T15:08:46.949Z,30.30
2023-04-29T15:11:16.764Z,23.30
2023-04-29T15:13:45.044Z,19.47
2023-04-29T15:16:13.547Z,25.00
2023-04-29T15:18:45.498Z,20.63
2023-04-29T15:21:14.010Z,24.27
2023-04-29T15:23:42.188Z,25.43
2023-04-29T15:26:10.504Z,29.03
2023-04-29T15:28:40.461Z,25.03
2023-04-29T15:31:08.713Z,23.37
2023-04-29T15:33:36.947Z,23.47
2023-04-29T15:36:05.345Z,26.93
2023-04-29T15:38:33.612Z,26.50
2023-04-29T15:41:03.162Z,24.57
2023-04-29T15:43:32.676Z,21.73
2023-04-29T15:46:03.898Z,17.50
2023-04-29T15:48:32.150Z,20.73
2023-04-29T15:51:00.368Z,26.93
2023-04-29T15:53:28.588Z,23.97
2023-04-29T15:55:56.876Z,20.10
2023-04-29T15:58:25.121Z,25.30
2023-04-29T16:00:53.375Z,26.77
2023-04-29T16:03:23.129Z,18.50
2023-04-29T16:05:51.660Z,17.40
2023-04-29T16:08:19.846Z,18.97
2023-04-29T16:10:49.537Z,21.83
2023-04-29T16:13:17.777Z,22.90
2023-04-29T16:15:46.375Z,21.30
2023-04-29T16:18:14.870Z,20.00
2023-04-29T16:20:45.077Z,23.90
2023-04-29T16:23:13.447Z,18.40
2023-04-29T16:25:42.913Z,22.13
2023-04-29T16:28:11.156Z,19.97
2023-04-29T16:30:39.360Z,19.63
2023-04-29T16:33:07.621Z,21.10
2023-04-29T16:35:35.914Z,25.43
2023-04-29T16:38:05.477Z,18.33
2023-04-29T16:40:33.719Z,20.90
2023-04-29T16:43:01.970Z,19.50
2023-04-29T16:45:30.444Z,23.70
2023-04-29T16:47:59.060Z,17.10
2023-04-29T16:50:27.864Z,19.93
2023-04-29T16:52:56.277Z,21.93
2023-04-29T16:55:26.142Z,23.70
2023-04-29T16:57:54.454Z,23.40
2023-04-29T17:00:22.763Z,21.57
2023-04-29T17:02:51.516Z,20.40
2023-04-29T17:05:20.562Z,20.80
2023-04-29T17:07:48.753Z,20.60
2023-04-29T17:10:16.961Z,27.47
2023-04-29T17:12:46.502Z,20.63
2023-04-29T17:15:16.432Z,21.30
2023-04-29T17:17:44.823Z,19.67
2023-04-29T17:20:13.628Z,24.50
2023-04-29T17:22:41.895Z,22.00
2023-04-29T17:25:14.786Z,22.67
2023-04-29T17:27:44.851Z,21.00
2023-04-29T17:30:15.110Z,26.50
2023-04-29T17:32:44.446Z,18.80
2023-04-29T17:35:12.850Z,21.20
2023-04-29T17:37:41.103Z,31.30
2023-04-29T17:40:11.962Z,18.37
2023-04-29T17:42:40.910Z,27.00
2023-04-29T17:45:09.876Z,23.63
2023-04-29T17:47:39.585Z,23.13
2023-04-29T17:50:09.566Z,22.00
2023-04-29T17:52:37.881Z,31.87
2023-04-29T17:55:06.460Z,27.70
2023-04-29T17:57:34.746Z,24.53
2023-04-29T18:00:03.321Z,19.97
2023-04-29T18:02:31.880Z,28.00
2023-04-29T18:05:03.161Z,23.83
2023-04-29T18:07:31.434Z,27.90
2023-04-29T18:09:59.750Z,30.43
2023-04-29T18:12:28.045Z,25.53
2023-04-29T18:14:56.242Z,28.90
2023-04-29T18:17:24.457Z,23.77
2023-04-29T18:19:52.947Z,25.17
2023-04-29T18:22:22.606Z,23.60
2023-04-29T18:24:50.964Z,24.10
2023-04-29T18:27:19.186Z,18.90
2023-04-29T18:29:47.375Z,16.03
2023-04-29T18:32:15.745Z,18.50
2023-04-29T18:34:44.292Z,25.37
2023-04-29T18:37:12.590Z,24.27
2023-04-29T18:39:42.640Z,25.40
2023-04-29T18:42:10.932Z,25.00
2023-04-29T18:44:40.018Z,21.07
2023-04-29T18:47:08.288Z,24.53
2023-04-29T18:49:38.352Z,23.10
2023-04-29T18:52:06.722Z,24.30
2023-04-29T18:54:34.936Z,23.00
2023-04-29T18:57:04.984Z,24.47
2023-04-29T18:59:35.831Z,20.33
2023-04-29T19:02:06.098Z,24.07
2023-04-29T19:04:35.004Z,22.70
2023-04-29T19:07:05.937Z,23.10
2023-04-29T19:09:34.313Z,26.03
2023-04-29T19:12:04.541Z,21.43
2023-04-29T19:14:34.434Z,24.17
2023-04-29T19:17:02.865Z,23.03
2023-04-29T19:19:31.296Z,25.53
2023-04-29T19:21:59.611Z,26.63
2023-04-29T19:24:27.921Z,23.17
2023-04-29T19:26:56.239Z,25.50
2023-04-29T19:29:24.482Z,28.43
2023-04-29T19:31:54.285Z,26.10
2023-04-29T19:34:22.611Z,25.83
2023-04-29T19:36:51.138Z,21.13
2023-04-29T19:39:19.350Z,27.67
2023-04-29T19:41:47.674Z,26.43
2023-04-29T19:44:15.923Z,26.23
2023-04-29T19:46:44.290Z,24.00
2023-04-29T19:49:14.388Z,23.93
2023-04-29T19:51:42.622Z,25.17
2023-04-29T19:54:11.056Z,25.83
2023-04-29T19:56:39.290Z,22.70
2023-04-29T19:59:07.509Z,24.43
2023-04-29T20:01:36.480Z,26.20
2023-04-29T20:04:04.757Z,26.20
2023-04-29T20:06:37.683Z,22.00
2023-04-29T20:09:06.164Z,23.00
2023-04-29T20:11:34.460Z,25.70
2023-04-29T20:14:03.760Z,25.03
2023-04-29T20:16:32.216Z,25.47
2023-04-29T20:19:00.630Z,22.77
2023-04-29T20:21:29.141Z,23.03
2023-04-29T20:23:59.271Z,26.33
2023-04-29T20:26:27.978Z,26.37
2023-04-29T20:28:56.200Z,27.00
2023-04-29T20:31:24.385Z,27.07
2023-04-29T20:33:53.595Z,29.40
2023-04-29T20:36:21.908Z,28.50
2023-04-29T20:38:50.215Z,26.67
2023-04-29T20:41:19.735Z,32.67
2023-04-29T20:43:47.915Z,27.57
2023-04-29T20:46:16.795Z,32.90
2023-04-29T20:48:45.116Z,31.03
2023-04-29T20:51:13.618Z,27.20
2023-04-29T20:53:41.862Z,37.43
2023-04-29T20:56:10.637Z,35.13
2023-04-29T20:58:40.265Z,32.43
2023-04-29T21:01:08.958Z,31.00
2023-04-29T21:03:37.242Z,29.43
2023-04-29T21:06:05.657Z,30.60
2023-04-29T21:08:33.884Z,30.17
2023-04-29T21:11:02.490Z,34.87
2023-04-29T21:13:30.908Z,31.70
2023-04-29T21:16:00.590Z,30.70
2023-04-29T21:18:28.906Z,33.77
2023-04-29T21:20:57.217Z,34.80
2023-04-29T21:23:25.500Z,35.83
2023-04-29T21:25:53.701Z,33.47
2023-04-29T21:28:21.907Z,32.90
2023-04-29T21:30:50.115Z,39.57
2023-04-29T21:33:19.717Z,32.87
2023-04-29T21:35:51.560Z,34.77
2023-04-29T21:38:19.857Z,38.50
2023-04-29T21:40:49.597Z,35.27
2023-04-29T21:43:18.827Z,32.10
2023-04-29T21:45:47.642Z,36.73
2023-04-29T21:48:16.953Z,34.70
2023-04-29T21:50:46.612Z,31.07
2023-04-29T21:53:16.580Z,37.53
2023-04-29T21:55:45.125Z,36.97
2023-04-29T21:58:13.509Z,31.73
2023-04-29T22:00:47.958Z,34.60
2023-04-29T22:03:16.487Z,33.93
2023-04-29T22:05:45.044Z,34.23
2023-04-29T22:08:14.646Z,42.07
2023-04-29T22:10:43.650Z,37.53
2023-04-29T22:13:12.811Z,35.13
2023-04-29T22:15:41.183Z,33.13
2023-04-29T22:18:09.463Z,37.23
2023-04-29T22:20:37.733Z,37.70
2023-04-29T22:23:05.940Z,37.20
2023-04-29T22:25:35.947Z,36.17
2023-04-29T22:28:04.221Z,34.77
2023-04-29T22:30:32.484Z,35.73
2023-04-29T22:33:00.826Z,35.20
2023-04-29T22:35:29.243Z,31.03
2023-04-29T22:37:57.423Z,34.30
2023-04-29T22:40:25.690Z,32.80
2023-04-29T22:42:55.265Z,32.37
2023-04-29T22:45:23.521Z,33.30
2023-04-29T22:47:51.868Z,35.03
2023-04-29T22:50:20.176Z,40.03
2023-04-29T22:52:48.378Z,37.63
2023-04-29T22:55:16.641Z,31.93
2023-04-29T22:57:44.893Z,33.77
2023-04-29T23:00:15.794Z,31.53
2023-04-29T23:02:44.076Z,32.73
2023-04-29T23:05:12.385Z,34.90
2023-04-29T23:07:41.099Z,35.83
2023-04-29T23:10:09.983Z,31.53
2023-04-29T23:12:38.245Z,33.83
2023-04-29T23:15:06.839Z,31.23
2023-04-29T23:17:39.600Z,27.87
2023-04-29T23:20:08.649Z,32.63
2023-04-29T23:22:36.847Z,33.90
2023-04-29T23:25:05.193Z,36.73
2023-04-29T23:27:33.420Z,37.50
2023-04-29T23:30:02.357Z,36.13
2023-04-29T23:32:30.809Z,34.73
2023-04-29T23:35:00.442Z,30.23
2023-04-29T23:37:28.674Z,31.23
2023-04-29T23:39:57.197Z,29.53
2023-04-29T23:42:27.176Z,31.53
2023-04-29T23:44:55.410Z,33.27
2023-04-29T23:47:23.734Z,27.83
2023-04-29T23:49:52.100Z,32.80
2023-04-29T23:52:21.805Z,30.03
2023-04-29T23:54:50.036Z,25.37
2023-04-29T23:57:18.290Z,22.10
2023-04-29T23:59:46.488Z,26.60
